Time;durP1;ratioP1;P1;durP2;ratioP2;P2;SDS_P1;SDS_P2;PMS_P1;PMS_P2;Temp;Humidity;BMP_temperature;BMP_pressure;BME280_temperature;BME280_humidity;BME280_pressure;Samples;Min_cycle;Max_cycle;Signal;HPM_P1;HPM_P2
2022/04/18 00:01:52;;;;;;;35.78;16.50;;;9.20;99.90;;;;;;5076876;28;20051;-71
2022/04/18 00:04:18;;;;;;;33.92;16.75;;;9.40;99.90;;;;;;5092326;28;20036;-72
2022/04/18 00:06:43;;;;;;;32.00;16.13;;;9.50;99.90;;;;;;5092077;28;20020;-71
2022/04/18 00:09:09;;;;;;;32.58;16.33;;;9.40;99.90;;;;;;5091874;28;20031;-71
2022/04/18 00:11:35;;;;;;;38.40;18.52;;;9.50;99.90;;;;;;5077853;28;20099;-72
2022/04/18 00:14:01;;;;;;;39.33;17.60;;;9.40;99.90;;;;;;5092120;28;20480;-72
2022/04/18 00:16:27;;;;;;;38.60;16.70;;;9.40;99.90;;;;;;5091645;28;20110;-73
2022/04/18 00:18:52;;;;;;;33.35;15.55;;;9.40;99.90;;;;;;5091975;28;20034;-70
2022/04/18 00:21:19;;;;;;;36.05;16.48;;;9.60;99.90;;;;;;5091828;28;20496;-71
2022/04/18 00:23:45;;;;;;;35.03;17.30;;;9.60;99.90;;;;;;5091789;28;20052;-71
2022/04/18 00:26:11;;;;;;;38.95;20.08;;;9.70;99.90;;;;;;5079561;28;20056;-70
2022/04/18 00:28:37;;;;;;;46.58;22.65;;;9.80;99.90;;;;;;5069991;28;20032;-70
2022/04/18 00:31:02;;;;;;;52.95;25.55;;;9.90;99.90;;;;;;5071381;28;20024;-71
2022/04/18 00:33:28;;;;;;;54.03;24.67;;;9.90;99.90;;;;;;5089646;28;20115;-72
2022/04/18 00:35:55;;;;;;;56.30;25.75;;;9.80;99.90;;;;;;5091557;28;20027;-70
2022/04/18 00:38:22;;;;;;;58.63;26.83;;;9.80;99.90;;;;;;5091338;28;20375;-71
2022/04/18 00:40:48;;;;;;;61.10;27.20;;;9.80;99.90;;;;;;5081923;28;20465;-71
2022/04/18 00:43:14;;;;;;;64.15;28.85;;;9.80;99.90;;;;;;5085971;28;20085;-71
2022/04/18 00:45:40;;;;;;;64.13;29.08;;;9.70;99.90;;;;;;5091714;28;20455;-71
2022/04/18 00:48:06;;;;;;;61.50;25.67;;;9.60;99.90;;;;;;5091350;28;20533;-71
2022/04/18 00:50:34;;;;;;;60.83;27.23;;;9.40;99.90;;;;;;5091326;28;20067;-70
2022/04/18 00:53:00;;;;;;;57.78;27.92;;;9.30;99.90;;;;;;5090988;28;20023;-72
2022/04/18 00:55:29;;;;;;;74.07;31.17;;;9.20;99.90;;;;;;5087642;28;20024;-72
2022/04/18 00:57:55;;;;;;;71.13;31.67;;;9.20;99.90;;;;;;5071165;28;20039;-71
2022/04/18 01:00:24;;;;;;;79.65;32.63;;;9.10;99.90;;;;;;5070897;28;20028;-72
2022/04/18 01:02:50;;;;;;;73.78;30.40;;;9.20;99.90;;;;;;5080732;28;20103;-71
2022/04/18 01:05:16;;;;;;;89.95;34.90;;;9.10;99.90;;;;;;5087927;28;20079;-72
2022/04/18 01:07:42;;;;;;;75.90;33.70;;;9.10;99.90;;;;;;5089650;28;20167;-72
2022/04/18 01:10:08;;;;;;;85.25;35.33;;;9.00;99.90;;;;;;5090562;28;20032;-72
2022/04/18 01:12:34;;;;;;;89.93;35.90;;;8.90;99.90;;;;;;5080566;28;20465;-70
2022/04/18 01:15:00;;;;;;;81.38;37.00;;;8.90;99.90;;;;;;5091003;28;20055;-71
2022/04/18 01:17:26;;;;;;;92.22;36.97;;;8.90;99.90;;;;;;5090890;28;20063;-71
2022/04/18 01:19:52;;;;;;;95.97;37.78;;;9.00;99.90;;;;;;5090869;28;20028;-72
2022/04/18 01:22:19;;;;;;;84.57;32.65;;;9.00;99.90;;;;;;5090325;28;20540;-71
2022/04/18 01:30:15;;;;;;;74.50;30.40;;;9.10;99.90;;;;;;5070825;28;20043;-71
2022/04/18 01:32:42;;;;;;;75.32;32.22;;;9.00;99.90;;;;;;5081067;28;20508;-70
2022/04/18 01:35:08;;;;;;;83.53;31.38;;;9.10;99.90;;;;;;5090756;28;20021;-70
2022/04/18 01:37:36;;;;;;;70.78;27.80;;;9.10;99.90;;;;;;5090608;28;20024;-70
2022/04/18 01:40:03;;;;;;;70.82;25.80;;;9.20;99.90;;;;;;5090971;28;20042;-71
2022/04/18 01:42:29;;;;;;;83.80;27.45;;;9.30;99.90;;;;;;5081704;28;20032;-71
2022/04/18 01:44:54;;;;;;;78.43;25.50;;;9.30;99.90;;;;;;5090802;28;20152;-72
2022/04/18 01:47:20;;;;;;;75.97;25.95;;;9.30;99.90;;;;;;5086213;28;20036;-70
2022/04/18 01:49:46;;;;;;;78.07;26.02;;;9.30;99.90;;;;;;5087817;28;20143;-71
2022/04/18 01:52:11;;;;;;;75.20;26.42;;;9.30;99.90;;;;;;5090043;28;20518;-71
2022/04/18 01:54:37;;;;;;;76.03;24.88;;;9.40;99.90;;;;;;5090498;28;20028;-70
2022/04/18 01:57:04;;;;;;;67.93;25.00;;;9.40;99.90;;;;;;5076675;28;20032;-73
2022/04/18 01:59:29;;;;;;;68.80;24.58;;;9.50;99.90;;;;;;5070285;28;20017;-70
2022/04/18 02:01:55;;;;;;;67.47;25.23;;;9.50;99.90;;;;;;5074116;28;20115;-71
2022/04/18 02:04:21;;;;;;;64.97;24.20;;;9.50;99.90;;;;;;5089099;28;20024;-72
2022/04/18 02:06:46;;;;;;;62.83;23.33;;;9.40;99.90;;;;;;5090490;28;20032;-71
2022/04/18 02:09:12;;;;;;;70.38;25.00;;;9.30;99.90;;;;;;5090375;28;20036;-71
2022/04/18 02:11:39;;;;;;;69.75;26.33;;;9.30;99.90;;;;;;5082512;28;20036;-71
2022/04/18 02:14:04;;;;;;;62.80;24.08;;;9.30;99.90;;;;;;5090655;28;20027;-70
2022/04/18 02:16:30;;;;;;;65.72;23.02;;;9.30;99.90;;;;;;5090500;28;20040;-72
2022/04/18 02:18:56;;;;;;;71.32;25.67;;;9.40;99.90;;;;;;5090287;28;20062;-72
2022/04/18 02:21:21;;;;;;;76.75;25.10;;;9.40;99.90;;;;;;5090628;28;20039;-71
2022/04/18 02:23:47;;;;;;;69.32;24.13;;;9.40;99.90;;;;;;5090509;28;20031;-72
2022/04/18 02:26:13;;;;;;;68.68;23.15;;;9.50;99.90;;;;;;5084970;28;20522;-70
2022/04/18 02:28:40;;;;;;;74.65;26.95;;;9.50;99.90;;;;;;5070038;28;20059;-71
2022/04/18 02:31:07;;;;;;;73.00;26.17;;;9.50;99.90;;;;;;5070130;28;20028;-69
2022/04/18 02:33:33;;;;;;;62.92;25.75;;;9.50;99.90;;;;;;5087426;28;20024;-71
2022/04/18 02:36:01;;;;;;;70.82;26.27;;;9.50;99.90;;;;;;5092852;28;20081;-71
2022/04/18 02:38:27;;;;;;;67.20;25.50;;;9.50;99.90;;;;;;5093819;28;20028;-71
2022/04/18 02:40:53;;;;;;;71.40;23.98;;;9.30;99.90;;;;;;5092638;28;20106;-71
2022/04/18 02:43:18;;;;;;;73.28;26.35;;;9.20;99.90;;;;;;5088842;28;20543;-71
2022/04/18 02:45:44;;;;;;;70.70;26.33;;;9.10;99.90;;;;;;5093832;28;20046;-71
2022/04/18 02:48:10;;;;;;;75.63;26.85;;;8.90;99.90;;;;;;5093989;28;20055;-71
2022/04/18 02:50:35;;;;;;;82.53;27.42;;;8.90;99.90;;;;;;5092682;28;20028;-70
2022/04/18 02:53:01;;;;;;;78.95;25.95;;;8.70;99.90;;;;;;5093661;28;20053;-71
2022/04/18 02:55:28;;;;;;;75.30;26.80;;;8.60;99.90;;;;;;5093631;28;20051;-71
2022/04/18 02:57:54;;;;;;;74.30;25.23;;;8.50;99.90;;;;;;5075511;28;20033;-72
2022/04/18 03:00:20;;;;;;;83.85;26.88;;;8.40;99.90;;;;;;5073275;28;20107;-70
2022/04/18 03:02:45;;;;;;;83.53;27.17;;;8.40;99.90;;;;;;5083475;28;20096;-69
2022/04/18 03:05:12;;;;;;;81.45;27.20;;;8.20;99.90;;;;;;5093498;28;20028;-69
2022/04/18 03:07:38;;;;;;;84.03;27.75;;;8.20;99.90;;;;;;5093416;28;20020;-71
2022/04/18 03:10:05;;;;;;;90.05;27.38;;;8.10;99.90;;;;;;5093432;28;20044;-70
2022/04/18 03:12:31;;;;;;;84.68;26.92;;;8.00;99.90;;;;;;5087274;28;20066;-71
2022/04/18 03:14:57;;;;;;;90.93;28.40;;;7.90;99.90;;;;;;5093080;28;20024;-70
2022/04/18 03:17:23;;;;;;;81.85;27.00;;;7.90;99.90;;;;;;5092780;28;20059;-69
2022/04/18 03:19:49;;;;;;;95.43;29.33;;;7.80;99.90;;;;;;5092454;28;20056;-71
2022/04/18 03:22:15;;;;;;;87.65;28.63;;;7.80;99.90;;;;;;5089808;28;20481;-70
2022/04/18 03:24:41;;;;;;;86.43;28.92;;;7.80;99.90;;;;;;5089999;28;20016;-70
2022/04/18 03:27:06;;;;;;;94.70;30.15;;;7.70;99.90;;;;;;5080510;28;20573;-71
2022/04/18 03:29:32;;;;;;;92.85;30.13;;;7.70;99.90;;;;;;5069415;28;20037;-71
2022/04/18 03:31:58;;;;;;;98.57;28.38;;;7.70;99.90;;;;;;5073246;28;20020;-70
2022/04/18 03:34:25;;;;;;;93.20;27.88;;;7.70;99.90;;;;;;5091552;28;20024;-70
2022/04/18 03:39:50;;;;;;;82.80;26.55;;;7.60;99.90;;;;;;5093357;28;20055;-69
2022/04/18 03:42:29;;;;;;;81.45;26.25;;;7.40;99.90;;;;;;5089296;28;20028;-72
2022/04/18 03:44:57;;;;;;;76.72;25.27;;;7.30;99.90;;;;;;5092791;28;20504;-71
2022/04/18 03:47:23;;;;;;;78.18;25.77;;;7.20;99.90;;;;;;5090805;28;20384;-71
2022/04/18 03:49:49;;;;;;;79.97;25.83;;;7.10;99.90;;;;;;5092611;28;20043;-71
2022/04/18 03:52:15;;;;;;;73.43;25.42;;;6.90;99.90;;;;;;5092511;28;20419;-71
2022/04/18 03:54:40;;;;;;;77.15;24.55;;;6.90;99.90;;;;;;5092322;28;20053;-71
2022/04/18 03:57:07;;;;;;;74.38;25.65;;;6.80;99.90;;;;;;5085005;28;20388;-71
2022/04/18 03:59:33;;;;;;;77.57;25.77;;;6.70;99.90;;;;;;5072240;28;20071;-72
2022/04/18 04:01:58;;;;;;;88.82;27.70;;;6.60;99.90;;;;;;5074907;28;20024;-71
2022/04/18 04:04:24;;;;;;;87.90;26.80;;;6.60;99.90;;;;;;5092262;28;20461;-71
2022/04/18 04:06:50;;;;;;;84.30;25.80;;;6.60;99.90;;;;;;5092409;28;20081;-72
2022/04/18 04:09:16;;;;;;;88.57;26.55;;;6.60;99.90;;;;;;5092230;28;20032;-70
2022/04/18 04:11:42;;;;;;;82.20;26.48;;;6.60;99.90;;;;;;5089192;28;20033;-70
2022/04/18 04:14:08;;;;;;;105.43;31.38;;;6.60;99.90;;;;;;5092239;28;20035;-71
2022/04/18 04:16:34;;;;;;;94.45;28.55;;;6.90;99.90;;;;;;5090859;28;20557;-71
2022/04/18 04:18:59;;;;;;;93.65;29.27;;;7.00;99.90;;;;;;5071107;28;20039;-71
2022/04/18 04:21:25;;;;;;;101.00;27.95;;;6.90;99.90;;;;;;5068625;28;20029;-70
2022/04/18 04:23:51;;;;;;;108.47;30.88;;;6.80;99.90;;;;;;5068356;28;20385;-71
2022/04/18 04:26:16;;;;;;;92.57;28.98;;;6.90;99.90;;;;;;5068412;28;20020;-70
2022/04/18 04:28:42;;;;;;;81.68;27.00;;;6.90;99.90;;;;;;5082128;28;20063;-72
2022/04/18 04:31:08;;;;;;;84.35;28.13;;;6.90;99.90;;;;;;5088434;28;20077;-70
2022/04/18 04:33:33;;;;;;;71.60;24.63;;;6.70;99.90;;;;;;5077894;28;20031;-71
2022/04/18 04:36:00;;;;;;;78.63;25.80;;;6.60;99.90;;;;;;5068549;28;20025;-72
2022/04/18 04:38:26;;;;;;;93.78;29.35;;;6.60;99.90;;;;;;5082259;28;20103;-71
2022/04/18 04:40:53;;;;;;;90.63;27.75;;;6.60;99.90;;;;;;5091879;28;20385;-72
2022/04/18 04:43:27;;;;;;;91.28;27.83;;;6.70;99.90;;;;;;5091639;28;20257;-71
2022/04/18 04:45:54;;;;;;;102.00;29.00;;;6.70;99.90;;;;;;5091377;28;20059;-70
2022/04/18 04:48:20;;;;;;;103.72;29.00;;;6.80;99.90;;;;;;5083953;28;20032;-71
2022/04/18 04:50:46;;;;;;;98.47;29.42;;;6.80;99.90;;;;;;5071615;28;20447;-72
2022/04/18 04:53:12;;;;;;;93.80;28.45;;;6.80;99.90;;;;;;5070143;28;20108;-70
2022/04/18 04:55:37;;;;;;;93.30;29.67;;;6.90;99.90;;;;;;5071135;28;20116;-72
2022/04/18 04:58:03;;;;;;;99.93;29.52;;;6.80;99.90;;;;;;5078328;28;20032;-71
2022/04/18 05:00:30;;;;;;;107.80;30.38;;;6.90;99.90;;;;;;5090800;28;20028;-71
2022/04/18 05:02:56;;;;;;;80.68;26.95;;;6.80;99.90;;;;;;5084344;28;20024;-71
2022/04/18 05:05:22;;;;;;;69.15;25.02;;;6.80;99.90;;;;;;5066372;28;20034;-72
2022/04/18 05:07:48;;;;;;;74.28;25.73;;;6.60;99.90;;;;;;5075343;28;20045;-71
2022/04/18 05:10:15;;;;;;;88.95;28.63;;;6.50;99.90;;;;;;5091240;28;20540;-72
2022/04/18 05:12:42;;;;;;;87.22;27.42;;;6.40;99.90;;;;;;5091299;28;20043;-71
2022/04/18 05:15:08;;;;;;;72.75;25.02;;;6.30;99.90;;;;;;5091139;28;20032;-71
2022/04/18 05:17:33;;;;;;;78.72;25.75;;;6.30;99.90;;;;;;5087921;28;20558;-71
2022/04/18 05:19:59;;;;;;;91.93;27.98;;;6.30;99.90;;;;;;5067981;28;20028;-71
2022/04/18 05:22:25;;;;;;;88.47;26.73;;;6.30;99.90;;;;;;5067529;28;20066;-71
2022/04/18 05:24:51;;;;;;;94.20;30.58;;;6.40;99.90;;;;;;5067442;28;20025;-71
2022/04/18 05:27:17;;;;;;;95.07;31.00;;;6.50;99.90;;;;;;5070833;28;20545;-72
2022/04/18 05:29:44;;;;;;;77.03;25.95;;;6.60;99.90;;;;;;5091098;28;20028;-71
2022/04/18 05:32:10;;;;;;;95.88;29.05;;;6.60;99.90;;;;;;5090981;28;20024;-72
2022/04/18 05:34:35;;;;;;;85.75;28.67;;;6.80;99.90;;;;;;5075053;28;20386;-72
2022/04/18 05:37:02;;;;;;;86.95;27.65;;;6.80;99.90;;;;;;5070890;28;20516;-72
2022/04/18 05:39:27;;;;;;;86.65;27.38;;;6.90;99.90;;;;;;5090018;28;20428;-72
2022/04/18 05:41:53;;;;;;;105.18;30.08;;;7.00;99.90;;;;;;5091068;28;20481;-72
2022/04/18 05:44:19;;;;;;;89.28;29.38;;;7.00;99.90;;;;;;5089469;28;20052;-72
2022/04/18 05:46:45;;;;;;;108.70;31.40;;;7.10;99.90;;;;;;5090821;28;20192;-72
2022/04/18 05:49:10;;;;;;;102.53;29.02;;;7.10;99.90;;;;;;5076822;28;20102;-72
2022/04/18 05:51:38;;;;;;;91.03;28.45;;;7.20;99.90;;;;;;5067084;28;20381;-71
2022/04/18 05:54:04;;;;;;;86.22;28.58;;;7.30;99.90;;;;;;5065849;28;20359;-71
2022/04/18 05:56:30;;;;;;;87.50;29.92;;;7.30;99.90;;;;;;5067406;28;20086;-71
2022/04/18 05:58:57;;;;;;;92.68;29.63;;;7.40;99.90;;;;;;5081407;28;20036;-72
2022/04/18 06:01:23;;;;;;;85.85;27.40;;;7.50;99.90;;;;;;5085947;28;20028;-72
2022/04/18 06:03:49;;;;;;;82.15;27.80;;;7.50;99.90;;;;;;5076482;28;20519;-71
2022/04/18 06:06:15;;;;;;;81.97;27.52;;;7.60;99.90;;;;;;5067061;28;20025;-70
2022/04/18 06:08:41;;;;;;;76.68;26.98;;;7.70;99.90;;;;;;5079541;28;20493;-72
2022/04/18 06:11:07;;;;;;;76.03;25.77;;;7.80;99.90;;;;;;5091433;28;20024;-72
2022/04/18 06:13:34;;;;;;;86.57;26.73;;;7.90;99.90;;;;;;5091326;28;20027;-73
2022/04/18 06:16:00;;;;;;;74.82;26.60;;;8.00;99.90;;;;;;5091582;28;20054;-72
2022/04/18 06:18:26;;;;;;;72.85;24.95;;;8.20;99.90;;;;;;5087828;28;20056;-72
2022/04/18 06:20:52;;;;;;;78.90;27.92;;;8.40;99.90;;;;;;5071095;28;20396;-72
2022/04/18 06:23:18;;;;;;;68.30;26.30;;;8.50;99.90;;;;;;5070773;28;20473;-71
2022/04/18 06:25:44;;;;;;;62.25;25.08;;;8.60;99.90;;;;;;5053119;28;20067;-72
2022/04/18 06:28:10;;;;;;;66.85;25.98;;;8.70;99.90;;;;;;5078773;28;20031;-72
2022/04/18 06:30:36;;;;;;;68.03;25.88;;;8.70;99.90;;;;;;5090953;28;20024;-72
2022/04/18 06:33:02;;;;;;;64.38;24.55;;;8.80;99.90;;;;;;5091092;28;20055;-72
2022/04/18 06:35:27;;;;;;;64.80;25.63;;;8.80;99.90;;;;;;5071347;28;20033;-74
2022/04/18 06:37:53;;;;;;;63.67;25.67;;;8.90;99.90;;;;;;5075911;28;20024;-74
2022/04/18 06:40:19;;;;;;;58.95;22.92;;;9.00;99.90;;;;;;5091002;28;20028;-71
2022/04/18 06:42:45;;;;;;;65.65;24.42;;;9.10;99.90;;;;;;5090475;28;20020;-75
2022/04/18 06:45:10;;;;;;;58.50;24.00;;;9.20;99.90;;;;;;5090667;28;20042;-74
2022/04/18 06:47:36;;;;;;;67.68;26.25;;;9.30;99.90;;;;;;5091744;28;20085;-75
2022/04/18 06:50:08;;;;;;;61.80;23.92;;;9.40;99.90;;;;;;5079308;28;20079;-75
2022/04/18 06:52:41;;;;;;;60.08;23.80;;;9.60;99.90;;;;;;5073738;28;20556;-74
2022/04/18 06:55:08;;;;;;;56.05;23.75;;;9.80;99.90;;;;;;5073497;28;20032;-75
2022/04/18 06:57:35;;;;;;;55.13;21.75;;;10.00;99.90;;;;;;5075886;28;20413;-74
2022/04/18 07:00:01;;;;;;;54.00;21.20;;;10.20;99.90;;;;;;5093620;28;20020;-73
2022/04/18 07:02:27;;;;;;;49.15;21.85;;;10.30;99.90;;;;;;5091040;28;20480;-74
2022/04/18 07:04:53;;;;;;;45.85;21.00;;;10.50;99.90;;;;;;5078157;28;20028;-75
2022/04/18 07:07:19;;;;;;;49.90;20.33;;;10.60;99.90;;;;;;5072087;28;20481;-72
2022/04/18 07:09:45;;;;;;;52.40;21.27;;;10.80;99.90;;;;;;5093634;28;20043;-70
2022/04/18 07:12:10;;;;;;;41.55;18.65;;;11.00;99.90;;;;;;5093347;28;20031;-70
2022/04/18 07:14:36;;;;;;;37.17;17.38;;;11.10;99.90;;;;;;5093448;28;20055;-72
2022/04/18 07:17:03;;;;;;;39.00;17.13;;;11.10;99.90;;;;;;5093173;28;20046;-69
2022/04/18 07:19:29;;;;;;;41.42;17.67;;;11.20;99.90;;;;;;5085145;28;20059;-71
2022/04/18 07:21:56;;;;;;;32.78;15.52;;;11.30;99.90;;;;;;5069446;28;20496;-71
2022/04/18 07:24:23;;;;;;;32.58;14.60;;;11.40;99.90;;;;;;5069972;28;20187;-70
2022/04/18 07:26:49;;;;;;;31.27;14.20;;;11.40;99.90;;;;;;5070283;28;20147;-70
2022/04/18 07:29:15;;;;;;;28.20;13.85;;;11.40;99.90;;;;;;5085751;28;20552;-69
2022/04/18 07:31:41;;;;;;;29.08;14.18;;;11.40;99.90;;;;;;5089196;28;20412;-70
2022/04/18 07:34:09;;;;;;;29.52;13.68;;;11.40;99.90;;;;;;5085023;28;20035;-69
2022/04/18 07:36:35;;;;;;;27.25;12.00;;;11.50;99.90;;;;;;5069439;28;20017;-70
2022/04/18 07:39:01;;;;;;;23.65;10.93;;;11.50;99.90;;;;;;5083335;28;20093;-70
2022/04/18 07:41:28;;;;;;;26.10;11.85;;;11.40;99.90;;;;;;5088760;28;20024;-69
2022/04/18 07:43:56;;;;;;;23.50;10.93;;;11.50;99.90;;;;;;5081569;28;20488;-69
2022/04/18 07:46:22;;;;;;;26.60;12.35;;;11.60;99.90;;;;;;5077027;28;20037;-70
2022/04/18 07:48:51;;;;;;;24.77;10.68;;;11.70;99.90;;;;;;5071790;28;20044;-69
2022/04/18 07:51:40;;;;;;;23.05;11.10;;;11.80;99.90;;;;;;5087625;28;20073;-69
2022/04/18 07:54:06;;;;;;;27.58;10.65;;;11.90;99.90;;;;;;5088819;28;20047;-70
2022/04/18 07:56:33;;;;;;;25.17;10.40;;;12.00;99.90;;;;;;5089332;28;20031;-70
2022/04/18 07:58:59;;;;;;;25.60;10.27;;;12.10;99.90;;;;;;5088691;28;20032;-70
2022/04/18 08:01:25;;;;;;;27.05;11.65;;;12.20;99.90;;;;;;5083271;28;20471;-70
2022/04/18 08:03:51;;;;;;;24.90;9.75;;;12.30;99.90;;;;;;5085429;28;20040;-70
2022/04/18 08:06:17;;;;;;;20.23;8.52;;;12.40;99.90;;;;;;5079736;28;20477;-69
2022/04/18 08:08:43;;;;;;;16.42;7.70;;;12.50;99.90;;;;;;5081963;28;20032;-70
2022/04/18 08:11:12;;;;;;;17.55;6.93;;;12.70;99.90;;;;;;5077124;28;20117;-70
2022/04/18 08:13:45;;;;;;;16.08;7.82;;;12.70;99.90;;;;;;5077673;28;20404;-69
2022/04/18 08:16:12;;;;;;;12.85;6.68;;;12.80;99.90;;;;;;5088680;28;20159;-68
2022/04/18 08:18:39;;;;;;;13.23;6.90;;;12.80;99.90;;;;;;5087636;28;20024;-69
2022/04/18 08:21:08;;;;;;;16.60;6.57;;;13.00;99.90;;;;;;5083566;28;20027;-70
2022/04/18 08:23:35;;;;;;;14.85;6.32;;;13.10;99.90;;;;;;5091312;28;20509;-69
2022/04/18 08:26:04;;;;;;;15.35;7.10;;;13.20;99.90;;;;;;5090246;28;20035;-70
2022/04/18 08:28:30;;;;;;;13.85;6.10;;;13.20;99.90;;;;;;5083846;28;20158;-70
2022/04/18 08:30:57;;;;;;;11.70;6.05;;;13.30;99.90;;;;;;5087167;28;20036;-69
2022/04/18 08:33:23;;;;;;;13.35;5.38;;;13.40;99.90;;;;;;5091788;28;20020;-71
2022/04/18 08:35:48;;;;;;;12.98;5.63;;;13.40;99.90;;;;;;5078061;28;20036;-71
2022/04/18 08:38:15;;;;;;;12.02;5.25;;;13.70;99.90;;;;;;5078356;28;20100;-71
2022/04/18 08:40:47;;;;;;;14.50;5.75;;;13.80;99.90;;;;;;5091825;28;20089;-73
2022/04/18 08:43:12;;;;;;;17.23;6.00;;;13.80;99.90;;;;;;5091895;28;20024;-72
2022/04/18 08:45:39;;;;;;;12.07;4.32;;;13.90;99.90;;;;;;5090196;28;20480;-73
2022/04/18 08:53:36;;;;;;;11.40;5.00;;;14.10;99.90;;;;;;5071394;28;20035;-70
2022/04/18 08:56:02;;;;;;;9.60;5.68;;;14.00;99.90;;;;;;5071111;28;20028;-68
2022/04/18 08:58:29;;;;;;;12.20;4.82;;;14.00;99.90;;;;;;5079577;28;20384;-71
2022/04/18 09:00:59;;;;;;;12.65;5.65;;;14.10;99.70;;;;;;5085474;28;20043;-69
2022/04/18 09:03:25;;;;;;;9.18;4.28;;;14.20;99.90;;;;;;5088004;28;20049;-72
2022/04/18 09:06:11;;;;;;;10.75;4.53;;;14.20;97.10;;;;;;5085377;28;20462;-71
2022/04/18 09:08:51;;;;;;;7.28;3.22;;;14.30;97.70;;;;;;5075578;28;20040;-71
2022/04/18 09:11:27;;;;;;;7.60;4.25;;;14.40;95.40;;;;;;5078818;28;20095;-69
2022/04/18 09:14:06;;;;;;;11.43;4.45;;;14.30;93.60;;;;;;5090426;28;20035;-70
2022/04/18 09:16:33;;;;;;;9.80;4.55;;;14.60;94.10;;;;;;5087851;28;20033;-70
2022/04/18 09:19:10;;;;;;;11.15;4.78;;;14.70;91.90;;;;;;5086055;28;20505;-73
2022/04/18 09:21:58;;;;;;;10.40;4.50;;;14.70;92.00;;;;;;5082941;28;20020;-72
2022/04/18 09:24:34;;;;;;;12.45;5.78;;;15.00;94.30;;;;;;5080864;28;20028;-71
2022/04/18 09:27:06;;;;;;;11.38;5.43;;;15.20;90.60;;;;;;5084526;28;20024;-71
2022/04/18 09:29:38;;;;;;;8.50;4.55;;;15.30;89.20;;;;;;5089878;28;20031;-74
2022/04/18 09:32:11;;;;;;;7.28;3.92;;;15.20;85.90;;;;;;5085546;28;20492;-71
2022/04/18 09:34:38;;;;;;;8.23;3.83;;;15.00;79.80;;;;;;5085493;28;20496;-72
2022/04/18 09:37:17;;;;;;;7.35;4.30;;;14.90;85.80;;;;;;5078889;28;20028;-73
2022/04/18 09:39:53;;;;;;;11.55;4.65;;;15.00;79.60;;;;;;5081724;28;20029;-72
2022/04/18 09:42:22;;;;;;;10.77;4.68;;;15.10;84.60;;;;;;5087466;28;20024;-73
2022/04/18 09:44:48;;;;;;;9.20;4.35;;;15.10;84.50;;;;;;5089639;28;20551;-71
2022/04/18 09:47:18;;;;;;;13.40;4.93;;;15.30;86.40;;;;;;5090508;28;20131;-73
2022/04/18 09:49:53;;;;;;;8.23;4.45;;;15.50;85.60;;;;;;5089402;28;20400;-72
2022/04/18 09:52:20;;;;;;;5.07;2.90;;;15.60;80.00;;;;;;5085072;28;20081;-73
2022/04/18 09:54:56;;;;;;;4.68;2.60;;;15.60;74.20;;;;;;5089930;28;20154;-73
2022/04/18 09:57:28;;;;;;;10.90;3.50;;;15.50;69.70;;;;;;5087366;28;20028;-72
2022/04/18 09:59:56;;;;;;;7.93;2.60;;;15.40;71.70;;;;;;5090518;28;20021;-70
2022/04/18 10:02:22;;;;;;;7.03;2.65;;;15.30;66.90;;;;;;5086923;28;20031;-72
2022/04/18 10:04:49;;;;;;;22.70;9.73;;;15.30;66.20;;;;;;5083102;28;20028;-71
2022/04/18 10:07:15;;;;;;;24.15;11.57;;;15.40;91.00;;;;;;5073939;28;20119;-72
2022/04/18 10:09:42;;;;;;;24.42;11.55;;;15.00;96.40;;;;;;5076214;28;20476;-72
2022/04/18 10:12:09;;;;;;;22.10;10.05;;;14.90;95.90;;;;;;5083688;28;20031;-71
2022/04/18 10:14:36;;;;;;;18.63;9.60;;;14.80;96.20;;;;;;5090636;28;20092;-71
2022/04/18 10:17:02;;;;;;;20.42;10.13;;;14.70;94.30;;;;;;5089560;28;20055;-72
2022/04/18 10:19:43;;;;;;;25.48;10.10;;;14.70;98.20;;;;;;5090486;28;20480;-72
2022/04/18 10:22:56;;;;;;;18.45;9.18;;;14.60;98.30;;;;;;5089306;28;20442;-74
2022/04/18 10:25:28;;;;;;;21.17;8.85;;;14.50;97.70;;;;;;5084589;28;20028;-72
2022/04/18 10:28:05;;;;;;;19.80;7.90;;;14.50;97.80;;;;;;5089231;28;20016;-71
2022/04/18 10:30:46;;;;;;;15.63;8.38;;;14.60;98.00;;;;;;5069138;28;20036;-71
2022/04/18 10:33:12;;;;;;;15.17;7.83;;;14.40;95.50;;;;;;5094350;28;20046;-71
2022/04/18 10:36:07;;;;;;;14.27;7.20;;;14.50;96.60;;;;;;5110269;28;20487;-71
2022/04/18 10:38:37;;;;;;;19.48;7.55;;;14.40;96.50;;;;;;5071102;28;20032;-71
2022/04/18 10:41:35;;;;;;;16.73;7.72;;;14.60;97.20;;;;;;5070168;28;20056;-72
2022/04/18 10:44:17;;;;;;;15.23;7.20;;;14.80;94.90;;;;;;5072804;28;20012;-71
2022/04/18 10:47:03;;;;;;;14.40;7.70;;;15.00;93.30;;;;;;5089931;28;20718;-72
2022/04/18 10:49:31;;;;;;;12.70;6.93;;;15.20;92.70;;;;;;5074805;28;20045;-71
2022/04/18 10:52:05;;;;;;;12.75;5.97;;;15.10;93.30;;;;;;5070208;28;20052;-71
2022/04/18 10:54:31;;;;;;;14.07;6.35;;;15.00;91.40;;;;;;5086125;28;20032;-71
2022/04/18 10:57:01;;;;;;;13.15;6.65;;;14.80;91.30;;;;;;5091800;28;20111;-73
2022/04/18 10:59:32;;;;;;;19.05;6.20;;;14.90;91.50;;;;;;5093944;28;20051;-72
2022/04/18 11:02:01;;;;;;;12.00;5.45;;;15.00;90.40;;;;;;5084048;28;20025;-71
2022/04/18 11:04:41;;;;;;;11.30;4.68;;;15.30;87.10;;;;;;5084552;28;20040;-71
2022/04/18 11:07:09;;;;;;;15.35;6.35;;;15.60;84.70;;;;;;5084103;28;20031;-72
2022/04/18 11:09:44;;;;;;;11.73;5.57;;;15.60;90.30;;;;;;5087853;28;20127;-71
2022/04/18 11:12:12;;;;;;;14.30;6.38;;;15.70;87.90;;;;;;5093771;28;20435;-72
2022/04/18 11:14:38;;;;;;;13.95;5.30;;;15.70;89.00;;;;;;5093551;28;20031;-71
2022/04/18 11:17:05;;;;;;;12.75;5.63;;;15.50;88.50;;;;;;5092936;28;20040;-72
2022/04/18 11:19:37;;;;;;;11.40;5.05;;;15.50;90.30;;;;;;5085197;28;20050;-72
2022/04/18 11:22:08;;;;;;;9.75;5.57;;;15.40;90.20;;;;;;5076180;28;20033;-68
2022/04/18 11:24:37;;;;;;;14.00;5.57;;;15.30;88.60;;;;;;5072900;28;20025;-71
2022/04/18 11:27:15;;;;;;;12.18;5.90;;;15.20;90.60;;;;;;5073049;28;20108;-71
2022/04/18 11:29:43;;;;;;;16.77;6.20;;;15.10;91.40;;;;;;5089475;28;20077;-72
2022/04/18 11:32:13;;;;;;;12.27;5.55;;;15.00;91.50;;;;;;5093095;28;20020;-72
2022/04/18 11:34:43;;;;;;;10.05;4.53;;;15.20;90.00;;;;;;5092726;28;20469;-72
2022/04/18 11:37:10;;;;;;;11.32;4.65;;;15.40;89.90;;;;;;5082580;28;20032;-72
2022/04/18 11:40:09;;;;;;;10.65;4.32;;;15.30;87.20;;;;;;5088513;28;20536;-74
2022/04/18 11:42:37;;;;;;;10.52;4.53;;;15.10;90.60;;;;;;5092817;28;20025;-73
2022/04/18 11:45:08;;;;;;;12.82;4.60;;;15.10;91.50;;;;;;5089450;28;20119;-71
2022/04/18 11:47:44;;;;;;;10.60;4.07;;;15.00;91.20;;;;;;5090730;28;20039;-72
2022/04/18 11:50:10;;;;;;;8.05;4.05;;;15.00;90.90;;;;;;5092609;28;20642;-71
2022/04/18 11:52:38;;;;;;;9.52;3.75;;;15.30;87.10;;;;;;5082203;28;20029;-71
2022/04/18 11:55:11;;;;;;;13.93;4.20;;;15.40;86.50;;;;;;5072380;28;20381;-71
2022/04/18 11:57:38;;;;;;;11.73;4.15;;;15.60;81.60;;;;;;5071117;28;20437;-72
2022/04/18 12:00:12;;;;;;;6.38;3.90;;;15.80;84.80;;;;;;5092493;28;20024;-73
2022/04/18 12:08:11;;;;;;;9.27;3.72;;;16.40;74.80;;;;;;5087030;28;20075;-73
2022/04/18 12:10:41;;;;;;;10.27;3.22;;;16.70;77.30;;;;;;5091326;28;20042;-72
2022/04/18 12:13:12;;;;;;;8.73;3.15;;;17.10;67.50;;;;;;5092050;28;20091;-71
2022/04/18 12:15:39;;;;;;;9.27;3.58;;;17.60;68.90;;;;;;5092500;28;20023;-71
2022/04/18 12:18:12;;;;;;;8.77;3.00;;;18.10;65.40;;;;;;5091560;28;20461;-72
2022/04/18 12:20:43;;;;;;;7.55;3.20;;;18.60;58.40;;;;;;5088430;28;20273;-72
2022/04/18 12:23:14;;;;;;;8.48;2.80;;;19.10;58.60;;;;;;5071160;28;20052;-72
2022/04/18 12:25:47;;;;;;;9.63;4.40;;;19.10;58.30;;;;;;5071787;28;20540;-71
2022/04/18 12:28:15;;;;;;;5.35;2.97;;;18.40;56.20;;;;;;5075381;28;20023;-72
2022/04/18 12:30:42;;;;;;;7.55;2.97;;;18.20;60.90;;;;;;5092010;28;20509;-71
2022/04/18 12:33:15;;;;;;;8.85;3.30;;;18.10;54.50;;;;;;5091229;28;20020;-71
2022/04/18 12:35:43;;;;;;;5.95;3.13;;;17.90;58.70;;;;;;5091844;28;20484;-73
2022/04/18 12:38:11;;;;;;;7.38;3.25;;;17.90;58.40;;;;;;5081972;28;20044;-71
2022/04/18 12:40:45;;;;;;;7.47;3.35;;;18.10;59.90;;;;;;5091778;28;20026;-71
2022/04/18 12:43:12;;;;;;;7.72;2.78;;;18.40;56.10;;;;;;5091931;28;20139;-71
2022/04/18 12:45:42;;;;;;;5.90;3.08;;;18.60;54.60;;;;;;5090437;28;20027;-72
2022/04/18 12:48:07;;;;;;;8.05;3.42;;;18.50;56.10;;;;;;5087871;28;20020;-70
2022/04/18 12:50:37;;;;;;;7.55;3.15;;;18.10;54.50;;;;;;5088760;28;20647;-73
2022/04/18 12:53:02;;;;;;;9.57;3.30;;;18.10;59.30;;;;;;5077133;28;20028;-70
2022/04/18 12:55:30;;;;;;;8.02;2.97;;;17.70;59.00;;;;;;5067549;28;20036;-70
2022/04/18 12:57:56;;;;;;;7.75;3.08;;;17.40;60.40;;;;;;5085880;28;20031;-70
2022/04/18 13:00:23;;;;;;;8.05;3.00;;;17.40;60.20;;;;;;5088313;28;20028;-70